sensor_id;sensor_type;location;lat;lon;timestamp;P1;durP1;ratioP1;P2;durP2;ratioP2
23346;SDS011;36852;45.466;11.066;2023-10-13T00:00:34;33.78;;;19.95;;
23346;SDS011;36852;45.466;11.066;2023-10-13T00:03:07;39.20;;;18.12;;
23346;SDS011;36852;45.466;11.066;2023-10-13T00:05:46;30.55;;;20.05;;
23346;SDS011;36852;45.466;11.066;2023-10-13T00:08:15;37.20;;;20.35;;
23346;SDS011;36852;45.466;11.066;2023-10-13T00:10:43;38.85;;;22.32;;
23346;SDS011;36852;45.466;11.066;2023-10-13T00:13:11;42.43;;;23.40;;
23346;SDS011;36852;45.466;11.066;2023-10-13T00:15:41;38.73;;;21.75;;
23346;SDS011;36852;45.466;11.066;2023-10-13T00:18:26;41.20;;;21.55;;
23346;SDS011;36852;45.466;11.066;2023-10-13T00:20:57;34.23;;;22.13;;
23346;SDS011;36852;45.466;11.066;2023-10-13T00:23:25;38.78;;;23.10;;
23346;SDS011;36852;45.466;11.066;2023-10-13T00:25:56;37.38;;;22.55;;
23346;SDS011;36852;45.466;11.066;2023-10-13T00:28:27;42.75;;;23.20;;
23346;SDS011;36852;45.466;11.066;2023-10-13T00:30:58;39.15;;;23.15;;
23346;SDS011;36852;45.466;11.066;2023-10-13T00:33:30;40.20;;;23.20;;
23346;SDS011;36852;45.466;11.066;2023-10-13T00:35:59;43.15;;;23.05;;
23346;SDS011;36852;45.466;11.066;2023-10-13T00:38:28;37.65;;;22.62;;
23346;SDS011;36852;45.466;11.066;2023-10-13T00:40:57;39.03;;;22.95;;
23346;SDS011;36852;45.466;11.066;2023-10-13T00:43:26;35.70;;;24.07;;
23346;SDS011;36852;45.466;11.066;2023-10-13T00:45:56;38.60;;;23.98;;
23346;SDS011;36852;45.466;11.066;2023-10-13T00:48:26;42.50;;;24.47;;
23346;SDS011;36852;45.466;11.066;2023-10-13T00:51:02;38.42;;;25.25;;
23346;SDS011;36852;45.466;11.066;2023-10-13T00:53:34;39.73;;;25.72;;
23346;SDS011;36852;45.466;11.066;2023-10-13T00:56:05;42.98;;;24.85;;
23346;SDS011;36852;45.466;11.066;2023-10-13T00:58:35;42.05;;;26.35;;
23346;SDS011;36852;45.466;11.066;2023-10-13T01:01:05;41.08;;;25.40;;
23346;SDS011;36852;45.466;11.066;2023-10-13T01:03:45;39.33;;;24.67;;
23346;SDS011;36852;45.466;11.066;2023-10-13T01:06:18;42.62;;;25.95;;
23346;SDS011;36852;45.466;11.066;2023-10-13T01:08:47;42.98;;;24.92;;
23346;SDS011;36852;45.466;11.066;2023-10-13T01:11:19;38.67;;;24.27;;
23346;SDS011;36852;45.466;11.066;2023-10-13T01:13:49;38.80;;;24.52;;
23346;SDS011;36852;45.466;11.066;2023-10-13T01:16:21;45.60;;;26.95;;
23346;SDS011;36852;45.466;11.066;2023-10-13T01:18:50;43.35;;;25.92;;
23346;SDS011;36852;45.466;11.066;2023-10-13T01:21:18;40.50;;;24.00;;
23346;SDS011;36852;45.466;11.066;2023-10-13T01:23:50;42.15;;;24.37;;
23346;SDS011;36852;45.466;11.066;2023-10-13T01:26:19;43.87;;;24.15;;
23346;SDS011;36852;45.466;11.066;2023-10-13T01:28:58;40.88;;;25.70;;
23346;SDS011;36852;45.466;11.066;2023-10-13T01:31:26;48.45;;;26.10;;
23346;SDS011;36852;45.466;11.066;2023-10-13T01:33:56;46.77;;;28.77;;
23346;SDS011;36852;45.466;11.066;2023-10-13T01:36:27;44.73;;;25.88;;
23346;SDS011;36852;45.466;11.066;2023-10-13T01:38:55;47.67;;;27.27;;
23346;SDS011;36852;45.466;11.066;2023-10-13T01:41:23;41.77;;;26.20;;
23346;SDS011;36852;45.466;11.066;2023-10-13T01:43:52;37.98;;;24.90;;
23346;SDS011;36852;45.466;11.066;2023-10-13T01:46:20;40.55;;;24.15;;
23346;SDS011;36852;45.466;11.066;2023-10-13T01:48:49;37.95;;;24.75;;
23346;SDS011;36852;45.466;11.066;2023-10-13T01:51:16;41.00;;;23.30;;
23346;SDS011;36852;45.466;11.066;2023-10-13T01:53:44;38.48;;;24.35;;
23346;SDS011;36852;45.466;11.066;2023-10-13T01:56:12;38.38;;;25.08;;
23346;SDS011;36852;45.466;11.066;2023-10-13T01:58:40;37.23;;;23.73;;
23346;SDS011;36852;45.466;11.066;2023-10-13T02:01:12;41.48;;;24.60;;
23346;SDS011;36852;45.466;11.066;2023-10-13T02:03:41;37.65;;;24.92;;
23346;SDS011;36852;45.466;11.066;2023-10-13T02:06:13;39.00;;;22.87;;
23346;SDS011;36852;45.466;11.066;2023-10-13T02:08:43;38.30;;;23.50;;
23346;SDS011;36852;45.466;11.066;2023-10-13T02:11:11;36.20;;;22.98;;
23346;SDS011;36852;45.466;11.066;2023-10-13T02:13:39;36.70;;;23.52;;
23346;SDS011;36852;45.466;11.066;2023-10-13T02:16:09;38.40;;;22.00;;
23346;SDS011;36852;45.466;11.066;2023-10-13T02:18:38;36.50;;;23.25;;
23346;SDS011;36852;45.466;11.066;2023-10-13T02:21:10;34.50;;;22.22;;
23346;SDS011;36852;45.466;11.066;2023-10-13T02:23:40;39.30;;;22.25;;
23346;SDS011;36852;45.466;11.066;2023-10-13T02:26:12;35.33;;;21.65;;
23346;SDS011;36852;45.466;11.066;2023-10-13T02:28:42;36.90;;;20.97;;
23346;SDS011;36852;45.466;11.066;2023-10-13T02:31:11;34.40;;;20.65;;
23346;SDS011;36852;45.466;11.066;2023-10-13T02:33:39;36.30;;;20.55;;
23346;SDS011;36852;45.466;11.066;2023-10-13T02:36:09;34.18;;;19.62;;
23346;SDS011;36852;45.466;11.066;2023-10-13T02:38:38;41.60;;;21.70;;
23346;SDS011;36852;45.466;11.066;2023-10-13T02:41:14;33.35;;;20.72;;
23346;SDS011;36852;45.466;11.066;2023-10-13T02:43:51;32.38;;;20.20;;
23346;SDS011;36852;45.466;11.066;2023-10-13T02:46:20;32.33;;;20.95;;
23346;SDS011;36852;45.466;11.066;2023-10-13T02:48:52;41.20;;;20.70;;
23346;SDS011;36852;45.466;11.066;2023-10-13T02:51:26;36.53;;;19.93;;
23346;SDS011;36852;45.466;11.066;2023-10-13T02:54:04;34.58;;;20.55;;
23346;SDS011;36852;45.466;11.066;2023-10-13T02:56:33;37.65;;;21.07;;
23346;SDS011;36852;45.466;11.066;2023-10-13T02:59:02;32.10;;;19.65;;
23346;SDS011;36852;45.466;11.066;2023-10-13T03:01:33;33.42;;;20.35;;
23346;SDS011;36852;45.466;11.066;2023-10-13T03:04:02;37.58;;;20.60;;
23346;SDS011;36852;45.466;11.066;2023-10-13T03:06:33;36.85;;;21.75;;
23346;SDS011;36852;45.466;11.066;2023-10-13T03:09:06;38.35;;;21.57;;
23346;SDS011;36852;45.466;11.066;2023-10-13T03:11:51;37.23;;;21.68;;
23346;SDS011;36852;45.466;11.066;2023-10-13T03:14:23;42.35;;;21.55;;
23346;SDS011;36852;45.466;11.066;2023-10-13T03:16:59;39.25;;;21.57;;
23346;SDS011;36852;45.466;11.066;2023-10-13T03:19:37;36.55;;;21.02;;
23346;SDS011;36852;45.466;11.066;2023-10-13T03:22:06;34.10;;;20.75;;
23346;SDS011;36852;45.466;11.066;2023-10-13T03:24:39;38.83;;;21.05;;
23346;SDS011;36852;45.466;11.066;2023-10-13T03:27:14;35.65;;;21.95;;
23346;SDS011;36852;45.466;11.066;2023-10-13T03:29:48;39.05;;;21.42;;
23346;SDS011;36852;45.466;11.066;2023-10-13T03:32:23;51.28;;;21.33;;
23346;SDS011;36852;45.466;11.066;2023-10-13T03:34:54;38.73;;;22.70;;
23346;SDS011;36852;45.466;11.066;2023-10-13T03:37:23;43.38;;;23.55;;
23346;SDS011;36852;45.466;11.066;2023-10-13T03:39:59;42.70;;;23.47;;
23346;SDS011;36852;45.466;11.066;2023-10-13T03:42:27;45.12;;;23.55;;
23346;SDS011;36852;45.466;11.066;2023-10-13T03:44:58;37.10;;;23.00;;
23346;SDS011;36852;45.466;11.066;2023-10-13T03:47:26;46.25;;;24.52;;
23346;SDS011;36852;45.466;11.066;2023-10-13T03:49:55;39.98;;;23.65;;
23346;SDS011;36852;45.466;11.066;2023-10-13T03:52:42;43.52;;;23.27;;
23346;SDS011;36852;45.466;11.066;2023-10-13T03:55:10;38.10;;;23.15;;
23346;SDS011;36852;45.466;11.066;2023-10-13T03:57:43;46.20;;;24.23;;
23346;SDS011;36852;45.466;11.066;2023-10-13T04:00:16;46.33;;;23.50;;
23346;SDS011;36852;45.466;11.066;2023-10-13T04:02:49;45.83;;;24.12;;
23346;SDS011;36852;45.466;11.066;2023-10-13T04:05:18;39.90;;;23.73;;
23346;SDS011;36852;45.466;11.066;2023-10-13T04:07:48;41.98;;;24.27;;
23346;SDS011;36852;45.466;11.066;2023-10-13T04:10:21;44.08;;;25.05;;
23346;SDS011;36852;45.466;11.066;2023-10-13T04:13:08;40.23;;;22.73;;
23346;SDS011;36852;45.466;11.066;2023-10-13T04:15:56;42.03;;;23.55;;
23346;SDS011;36852;45.466;11.066;2023-10-13T04:18:45;40.40;;;23.80;;
23346;SDS011;36852;45.466;11.066;2023-10-13T04:21:25;43.20;;;22.77;;
23346;SDS011;36852;45.466;11.066;2023-10-13T04:24:12;42.78;;;24.07;;
23346;SDS011;36852;45.466;11.066;2023-10-13T04:26:51;43.02;;;23.83;;
23346;SDS011;36852;45.466;11.066;2023-10-13T04:29:38;39.85;;;22.75;;
23346;SDS011;36852;45.466;11.066;2023-10-13T04:32:15;45.80;;;24.98;;
23346;SDS011;36852;45.466;11.066;2023-10-13T04:34:47;41.65;;;23.77;;
23346;SDS011;36852;45.466;11.066;2023-10-13T04:37:17;39.92;;;24.05;;
23346;SDS011;36852;45.466;11.066;2023-10-13T04:40:00;39.65;;;22.87;;
23346;SDS011;36852;45.466;11.066;2023-10-13T04:42:30;39.45;;;23.18;;
23346;SDS011;36852;45.466;11.066;2023-10-13T04:45:09;41.37;;;23.12;;
23346;SDS011;36852;45.466;11.066;2023-10-13T04:47:56;41.18;;;23.00;;
23346;SDS011;36852;45.466;11.066;2023-10-13T04:50:27;37.03;;;23.50;;
23346;SDS011;36852;45.466;11.066;2023-10-13T04:52:58;41.53;;;23.83;;
23346;SDS011;36852;45.466;11.066;2023-10-13T04:55:29;44.77;;;24.05;;
23346;SDS011;36852;45.466;11.066;2023-10-13T04:58:02;45.35;;;24.27;;
23346;SDS011;36852;45.466;11.066;2023-10-13T05:00:44;37.93;;;22.17;;
23346;SDS011;36852;45.466;11.066;2023-10-13T05:03:31;39.70;;;23.70;;
23346;SDS011;36852;45.466;11.066;2023-10-13T05:06:10;36.88;;;23.85;;
23346;SDS011;36852;45.466;11.066;2023-10-13T05:08:43;38.28;;;24.20;;
23346;SDS011;36852;45.466;11.066;2023-10-13T05:11:31;38.70;;;25.00;;
23346;SDS011;36852;45.466;11.066;2023-10-13T05:14:18;39.42;;;23.42;;
23346;SDS011;36852;45.466;11.066;2023-10-13T05:17:05;38.30;;;22.80;;
23346;SDS011;36852;45.466;11.066;2023-10-13T05:19:56;38.98;;;23.95;;
23346;SDS011;36852;45.466;11.066;2023-10-13T05:22:42;37.90;;;22.45;;
23346;SDS011;36852;45.466;11.066;2023-10-13T05:25:34;43.83;;;23.07;;
23346;SDS011;36852;45.466;11.066;2023-10-13T05:28:23;43.28;;;24.32;;
23346;SDS011;36852;45.466;11.066;2023-10-13T05:31:16;41.40;;;24.00;;
23346;SDS011;36852;45.466;11.066;2023-10-13T05:34:02;43.63;;;23.30;;
23346;SDS011;36852;45.466;11.066;2023-10-13T05:36:48;38.45;;;23.52;;
23346;SDS011;36852;45.466;11.066;2023-10-13T05:39:31;40.10;;;24.27;;
23346;SDS011;36852;45.466;11.066;2023-10-13T05:42:17;38.78;;;24.72;;
23346;SDS011;36852;45.466;11.066;2023-10-13T05:45:06;43.63;;;25.75;;
23346;SDS011;36852;45.466;11.066;2023-10-13T05:47:45;39.27;;;23.67;;
23346;SDS011;36852;45.466;11.066;2023-10-13T05:50:14;36.73;;;24.02;;
23346;SDS011;36852;45.466;11.066;2023-10-13T05:52:50;37.48;;;23.35;;
23346;SDS011;36852;45.466;11.066;2023-10-13T05:55:26;44.88;;;23.60;;
23346;SDS011;36852;45.466;11.066;2023-10-13T05:58:14;41.23;;;23.85;;
23346;SDS011;36852;45.466;11.066;2023-10-13T06:01:01;42.60;;;23.05;;
23346;SDS011;36852;45.466;11.066;2023-10-13T06:03:43;39.92;;;23.35;;
23346;SDS011;36852;45.466;11.066;2023-10-13T06:06:33;36.05;;;23.25;;
23346;SDS011;36852;45.466;11.066;2023-10-13T06:09:19;43.95;;;24.15;;
23346;SDS011;36852;45.466;11.066;2023-10-13T06:12:06;40.70;;;23.05;;
23346;SDS011;36852;45.466;11.066;2023-10-13T06:14:52;38.90;;;23.60;;
23346;SDS011;36852;45.466;11.066;2023-10-13T06:17:39;42.15;;;22.87;;
23346;SDS011;36852;45.466;11.066;2023-10-13T06:20:25;43.35;;;24.07;;
23346;SDS011;36852;45.466;11.066;2023-10-13T06:23:11;42.70;;;24.27;;
23346;SDS011;36852;45.466;11.066;2023-10-13T06:25:58;39.35;;;24.07;;
23346;SDS011;36852;45.466;11.066;2023-10-13T06:28:45;42.33;;;24.12;;
23346;SDS011;36852;45.466;11.066;2023-10-13T06:31:13;42.65;;;24.00;;
23346;SDS011;36852;45.466;11.066;2023-10-13T06:33:44;46.42;;;25.25;;
23346;SDS011;36852;45.466;11.066;2023-10-13T06:36:12;46.35;;;23.80;;
23346;SDS011;36852;45.466;11.066;2023-10-13T06:38:41;43.63;;;25.08;;
23346;SDS011;36852;45.466;11.066;2023-10-13T06:41:09;44.40;;;26.70;;
23346;SDS011;36852;45.466;11.066;2023-10-13T06:43:41;41.83;;;25.62;;
23346;SDS011;36852;45.466;11.066;2023-10-13T06:46:10;46.83;;;24.63;;
23346;SDS011;36852;45.466;11.066;2023-10-13T06:48:40;36.45;;;24.35;;
23346;SDS011;36852;45.466;11.066;2023-10-13T06:51:08;43.40;;;24.67;;
23346;SDS011;36852;45.466;11.066;2023-10-13T06:53:45;45.05;;;24.57;;
23346;SDS011;36852;45.466;11.066;2023-10-13T06:56:15;40.90;;;25.15;;
23346;SDS011;36852;45.466;11.066;2023-10-13T06:58:45;45.88;;;25.02;;
23346;SDS011;36852;45.466;11.066;2023-10-13T07:01:14;43.15;;;25.68;;
23346;SDS011;36852;45.466;11.066;2023-10-13T07:03:44;47.13;;;24.72;;
23346;SDS011;36852;45.466;11.066;2023-10-13T07:06:14;44.58;;;26.33;;
23346;SDS011;36852;45.466;11.066;2023-10-13T07:08:43;40.92;;;24.72;;
23346;SDS011;36852;45.466;11.066;2023-10-13T07:11:16;50.15;;;25.32;;
23346;SDS011;36852;45.466;11.066;2023-10-13T07:13:46;42.73;;;25.82;;
23346;SDS011;36852;45.466;11.066;2023-10-13T07:16:16;44.60;;;25.12;;
23346;SDS011;36852;45.466;11.066;2023-10-13T07:18:46;43.33;;;24.23;;
23346;SDS011;36852;45.466;11.066;2023-10-13T07:21:16;43.45;;;25.60;;
23346;SDS011;36852;45.466;11.066;2023-10-13T07:23:46;45.70;;;25.68;;
23346;SDS011;36852;45.466;11.066;2023-10-13T07:26:16;49.58;;;26.30;;
23346;SDS011;36852;45.466;11.066;2023-10-13T07:28:44;43.83;;;23.85;;
23346;SDS011;36852;45.466;11.066;2023-10-13T07:31:13;46.98;;;24.77;;
23346;SDS011;36852;45.466;11.066;2023-10-13T07:33:46;52.62;;;26.17;;
23346;SDS011;36852;45.466;11.066;2023-10-13T07:36:15;46.08;;;26.85;;
23346;SDS011;36852;45.466;11.066;2023-10-13T07:38:47;46.53;;;26.02;;
23346;SDS011;36852;45.466;11.066;2023-10-13T07:41:18;41.98;;;23.18;;
23346;SDS011;36852;45.466;11.066;2023-10-13T07:43:48;45.10;;;24.85;;
23346;SDS011;36852;45.466;11.066;2023-10-13T07:46:16;39.78;;;25.08;;
23346;SDS011;36852;45.466;11.066;2023-10-13T07:48:44;44.55;;;25.25;;
23346;SDS011;36852;45.466;11.066;2023-10-13T07:51:12;52.23;;;27.17;;
23346;SDS011;36852;45.466;11.066;2023-10-13T07:53:43;45.98;;;26.33;;
23346;SDS011;36852;45.466;11.066;2023-10-13T07:56:12;52.05;;;28.02;;
23346;SDS011;36852;45.466;11.066;2023-10-13T07:58:40;48.68;;;27.70;;
23346;SDS011;36852;45.466;11.066;2023-10-13T08:01:22;46.18;;;27.17;;
23346;SDS011;36852;45.466;11.066;2023-10-13T08:03:53;81.53;;;31.82;;
23346;SDS011;36852;45.466;11.066;2023-10-13T08:06:34;101.42;;;33.35;;
23346;SDS011;36852;45.466;11.066;2023-10-13T08:09:04;57.67;;;28.10;;
23346;SDS011;36852;45.466;11.066;2023-10-13T08:11:36;77.45;;;29.07;;
23346;SDS011;36852;45.466;11.066;2023-10-13T08:14:05;50.85;;;27.65;;
23346;SDS011;36852;45.466;11.066;2023-10-13T08:16:46;57.25;;;29.50;;
23346;SDS011;36852;45.466;11.066;2023-10-13T08:19:34;55.20;;;27.25;;
23346;SDS011;36852;45.466;11.066;2023-10-13T08:22:15;49.27;;;29.05;;
23346;SDS011;36852;45.466;11.066;2023-10-13T08:24:48;44.30;;;27.90;;
23346;SDS011;36852;45.466;11.066;2023-10-13T08:27:20;57.33;;;28.65;;
23346;SDS011;36852;45.466;11.066;2023-10-13T08:30:07;56.83;;;29.70;;
23346;SDS011;36852;45.466;11.066;2023-10-13T08:32:41;56.70;;;29.07;;
23346;SDS011;36852;45.466;11.066;2023-10-13T08:35:13;53.33;;;28.40;;
23346;SDS011;36852;45.466;11.066;2023-10-13T08:37:43;62.75;;;32.08;;
23346;SDS011;36852;45.466;11.066;2023-10-13T08:40:22;55.12;;;29.23;;
23346;SDS011;36852;45.466;11.066;2023-10-13T08:43:10;49.75;;;29.07;;
23346;SDS011;36852;45.466;11.066;2023-10-13T08:45:40;58.35;;;30.35;;
23346;SDS011;36852;45.466;11.066;2023-10-13T08:48:16;57.58;;;30.25;;
23346;SDS011;36852;45.466;11.066;2023-10-13T08:50:48;55.90;;;30.20;;
23346;SDS011;36852;45.466;11.066;2023-10-13T08:53:26;55.83;;;32.03;;
23346;SDS011;36852;45.466;11.066;2023-10-13T08:56:00;52.53;;;29.23;;
23346;SDS011;36852;45.466;11.066;2023-10-13T08:58:37;57.03;;;30.75;;
23346;SDS011;36852;45.466;11.066;2023-10-13T09:01:28;51.75;;;30.82;;
23346;SDS011;36852;45.466;11.066;2023-10-13T09:04:13;48.63;;;27.27;;
23346;SDS011;36852;45.466;11.066;2023-10-13T09:06:53;60.95;;;30.02;;
23346;SDS011;36852;45.466;11.066;2023-10-13T09:15:03;56.45;;;32.48;;
23346;SDS011;36852;45.466;11.066;2023-10-13T09:17:42;63.85;;;33.25;;
23346;SDS011;36852;45.466;11.066;2023-10-13T09:20:28;62.55;;;34.33;;
23346;SDS011;36852;45.466;11.066;2023-10-13T09:23:11;59.08;;;32.95;;
23346;SDS011;36852;45.466;11.066;2023-10-13T09:25:43;54.73;;;32.50;;
23346;SDS011;36852;45.466;11.066;2023-10-13T09:28:28;59.48;;;31.73;;
23346;SDS011;36852;45.466;11.066;2023-10-13T09:30:56;66.20;;;33.45;;
23346;SDS011;36852;45.466;11.066;2023-10-13T09:33:25;73.57;;;37.00;;
23346;SDS011;36852;45.466;11.066;2023-10-13T09:36:00;63.90;;;33.58;;
23346;SDS011;36852;45.466;11.066;2023-10-13T09:38:32;65.28;;;34.88;;
23346;SDS011;36852;45.466;11.066;2023-10-13T09:41:11;55.58;;;32.03;;
23346;SDS011;36852;45.466;11.066;2023-10-13T09:43:49;62.33;;;34.10;;
23346;SDS011;36852;45.466;11.066;2023-10-13T09:46:21;70.17;;;37.03;;
23346;SDS011;36852;45.466;11.066;2023-10-13T09:48:59;64.47;;;33.53;;
23346;SDS011;36852;45.466;11.066;2023-10-13T09:51:35;66.05;;;33.75;;
23346;SDS011;36852;45.466;11.066;2023-10-13T09:56:57;70.75;;;35.78;;
23346;SDS011;36852;45.466;11.066;2023-10-13T09:59:26;68.65;;;36.58;;
23346;SDS011;36852;45.466;11.066;2023-10-13T10:01:57;61.73;;;33.95;;
23346;SDS011;36852;45.466;11.066;2023-10-13T10:04:26;68.37;;;35.80;;
23346;SDS011;36852;45.466;11.066;2023-10-13T10:06:58;70.50;;;37.33;;
23346;SDS011;36852;45.466;11.066;2023-10-13T10:09:30;67.80;;;37.55;;
23346;SDS011;36852;45.466;11.066;2023-10-13T10:12:16;72.32;;;36.42;;
23346;SDS011;36852;45.466;11.066;2023-10-13T10:17:43;64.37;;;36.48;;
23346;SDS011;36852;45.466;11.066;2023-10-13T10:20:12;69.50;;;38.45;;
23346;SDS011;36852;45.466;11.066;2023-10-13T10:22:57;62.95;;;36.75;;
23346;SDS011;36852;45.466;11.066;2023-10-13T10:25:29;66.20;;;38.15;;
23346;SDS011;36852;45.466;11.066;2023-10-13T10:28:00;63.95;;;37.80;;
23346;SDS011;36852;45.466;11.066;2023-10-13T10:30:33;75.62;;;38.50;;
23346;SDS011;36852;45.466;11.066;2023-10-13T10:33:03;69.67;;;38.42;;
23346;SDS011;36852;45.466;11.066;2023-10-13T10:35:33;69.17;;;40.80;;
23346;SDS011;36852;45.466;11.066;2023-10-13T10:38:13;66.87;;;39.00;;
23346;SDS011;36852;45.466;11.066;2023-10-13T10:40:57;70.95;;;38.73;;
23346;SDS011;36852;45.466;11.066;2023-10-13T10:43:30;55.85;;;31.02;;
23346;SDS011;36852;45.466;11.066;2023-10-13T10:46:10;69.58;;;35.75;;
23346;SDS011;36852;45.466;11.066;2023-10-13T10:48:42;55.33;;;34.53;;
23346;SDS011;36852;45.466;11.066;2023-10-13T10:51:11;67.35;;;36.63;;
23346;SDS011;36852;45.466;11.066;2023-10-13T10:53:48;73.17;;;38.63;;
23346;SDS011;36852;45.466;11.066;2023-10-13T10:56:22;70.03;;;38.10;;
23346;SDS011;36852;45.466;11.066;2023-10-13T10:58:54;80.03;;;40.88;;
23346;SDS011;36852;45.466;11.066;2023-10-13T11:01:24;68.20;;;37.50;;
23346;SDS011;36852;45.466;11.066;2023-10-13T11:03:58;63.52;;;34.83;;
23346;SDS011;36852;45.466;11.066;2023-10-13T11:06:50;63.17;;;37.63;;
23346;SDS011;36852;45.466;11.066;2023-10-13T11:09:25;57.05;;;34.63;;
23346;SDS011;36852;45.466;11.066;2023-10-13T11:14:43;53.58;;;31.50;;
23346;SDS011;36852;45.466;11.066;2023-10-13T11:17:20;43.80;;;24.43;;
23346;SDS011;36852;45.466;11.066;2023-10-13T11:19:56;30.52;;;19.12;;
23346;SDS011;36852;45.466;11.066;2023-10-13T11:22:25;33.58;;;18.82;;
23346;SDS011;36852;45.466;11.066;2023-10-13T11:25:07;35.05;;;18.77;;
23346;SDS011;36852;45.466;11.066;2023-10-13T11:27:38;36.58;;;19.10;;
23346;SDS011;36852;45.466;11.066;2023-10-13T11:30:18;29.57;;;18.60;;
23346;SDS011;36852;45.466;11.066;2023-10-13T11:35:43;35.35;;;22.90;;
23346;SDS011;36852;45.466;11.066;2023-10-13T11:38:19;38.48;;;22.15;;
23346;SDS011;36852;45.466;11.066;2023-10-13T11:40:54;36.13;;;22.70;;
23346;SDS011;36852;45.466;11.066;2023-10-13T11:43:38;37.08;;;23.10;;
23346;SDS011;36852;45.466;11.066;2023-10-13T11:46:13;46.80;;;23.60;;
23346;SDS011;36852;45.466;11.066;2023-10-13T11:48:45;42.95;;;22.62;;
23346;SDS011;36852;45.466;11.066;2023-10-13T11:51:18;34.90;;;20.25;;
23346;SDS011;36852;45.466;11.066;2023-10-13T11:53:48;38.88;;;22.13;;
23346;SDS011;36852;45.466;11.066;2023-10-13T11:56:22;36.58;;;23.07;;
23346;SDS011;36852;45.466;11.066;2023-10-13T11:58:49;43.75;;;22.22;;
23346;SDS011;36852;45.466;11.066;2023-10-13T12:01:18;38.08;;;23.15;;
23346;SDS011;36852;45.466;11.066;2023-10-13T12:03:48;37.33;;;22.37;;
23346;SDS011;36852;45.466;11.066;2023-10-13T12:06:35;36.70;;;22.75;;
23346;SDS011;36852;45.466;11.066;2023-10-13T12:09:06;39.85;;;20.50;;
23346;SDS011;36852;45.466;11.066;2023-10-13T12:11:44;34.53;;;17.87;;
23346;SDS011;36852;45.466;11.066;2023-10-13T12:14:17;30.57;;;18.82;;
23346;SDS011;36852;45.466;11.066;2023-10-13T12:16:59;33.02;;;18.27;;
23346;SDS011;36852;45.466;11.066;2023-10-13T12:19:30;34.33;;;19.02;;
23346;SDS011;36852;45.466;11.066;2023-10-13T12:21:58;32.35;;;17.05;;
23346;SDS011;36852;45.466;11.066;2023-10-13T12:24:29;33.18;;;18.25;;
23346;SDS011;36852;45.466;11.066;2023-10-13T12:27:05;26.33;;;15.55;;
23346;SDS011;36852;45.466;11.066;2023-10-13T12:29:53;35.17;;;17.60;;
23346;SDS011;36852;45.466;11.066;2023-10-13T12:32:23;30.77;;;15.93;;
23346;SDS011;36852;45.466;11.066;2023-10-13T12:34:52;32.95;;;18.45;;
23346;SDS011;36852;45.466;11.066;2023-10-13T12:37:30;37.33;;;17.07;;
23346;SDS011;36852;45.466;11.066;2023-10-13T12:40:13;23.83;;;12.70;;
23346;SDS011;36852;45.466;11.066;2023-10-13T12:43:01;29.57;;;14.95;;
23346;SDS011;36852;45.466;11.066;2023-10-13T12:45:49;17.35;;;10.68;;
23346;SDS011;36852;45.466;11.066;2023-10-13T12:48:37;15.78;;;10.13;;
23346;SDS011;36852;45.466;11.066;2023-10-13T12:51:24;16.65;;;11.05;;
23346;SDS011;36852;45.466;11.066;2023-10-13T12:53:57;21.10;;;10.30;;
23346;SDS011;36852;45.466;11.066;2023-10-13T12:56:36;19.55;;;11.50;;
23346;SDS011;36852;45.466;11.066;2023-10-13T12:59:06;15.13;;;10.65;;
23346;SDS011;36852;45.466;11.066;2023-10-13T13:01:36;20.15;;;11.25;;
23346;SDS011;36852;45.466;11.066;2023-10-13T13:04:07;19.37;;;10.23;;
23346;SDS011;36852;45.466;11.066;2023-10-13T13:06:37;22.52;;;12.63;;
23346;SDS011;36852;45.466;11.066;2023-10-13T13:09:08;18.15;;;12.10;;
23346;SDS011;36852;45.466;11.066;2023-10-13T13:11:37;20.97;;;10.68;;
23346;SDS011;36852;45.466;11.066;2023-10-13T13:14:07;20.62;;;12.33;;
23346;SDS011;36852;45.466;11.066;2023-10-13T13:16:35;27.50;;;12.80;;
23346;SDS011;36852;45.466;11.066;2023-10-13T13:19:07;22.27;;;12.25;;
23346;SDS011;36852;45.466;11.066;2023-10-13T13:21:38;20.72;;;11.53;;
23346;SDS011;36852;45.466;11.066;2023-10-13T13:24:06;20.05;;;10.58;;
23346;SDS011;36852;45.466;11.066;2023-10-13T13:26:40;17.30;;;10.47;;
23346;SDS011;36852;45.466;11.066;2023-10-13T13:29:08;21.25;;;10.82;;
23346;SDS011;36852;45.466;11.066;2023-10-13T13:31:39;25.48;;;10.35;;
23346;SDS011;36852;45.466;11.066;2023-10-13T13:34:10;20.00;;;9.28;;
23346;SDS011;36852;45.466;11.066;2023-10-13T13:36:42;16.42;;;9.35;;
23346;SDS011;36852;45.466;11.066;2023-10-13T13:39:15;15.72;;;9.53;;
23346;SDS011;36852;45.466;11.066;2023-10-13T13:41:45;25.45;;;12.73;;
23346;SDS011;36852;45.466;11.066;2023-10-13T13:44:13;23.55;;;13.58;;
23346;SDS011;36852;45.466;11.066;2023-10-13T13:46:42;21.37;;;12.60;;
23346;SDS011;36852;45.466;11.066;2023-10-13T13:49:10;22.35;;;13.10;;
23346;SDS011;36852;45.466;11.066;2023-10-13T13:51:44;21.23;;;12.88;;
23346;SDS011;36852;45.466;11.066;2023-10-13T13:54:18;20.37;;;13.62;;
23346;SDS011;36852;45.466;11.066;2023-10-13T13:56:47;23.60;;;12.78;;
23346;SDS011;36852;45.466;11.066;2023-10-13T13:59:17;25.25;;;11.57;;
23346;SDS011;36852;45.466;11.066;2023-10-13T14:01:47;14.45;;;9.75;;
23346;SDS011;36852;45.466;11.066;2023-10-13T14:04:15;18.07;;;9.28;;
23346;SDS011;36852;45.466;11.066;2023-10-13T14:06:45;14.53;;;9.05;;
23346;SDS011;36852;45.466;11.066;2023-10-13T14:09:12;22.62;;;10.40;;
23346;SDS011;36852;45.466;11.066;2023-10-13T14:11:46;23.25;;;11.90;;
23346;SDS011;36852;45.466;11.066;2023-10-13T14:14:32;18.85;;;11.63;;
23346;SDS011;36852;45.466;11.066;2023-10-13T14:17:01;22.52;;;12.60;;
23346;SDS011;36852;45.466;11.066;2023-10-13T14:19:35;27.55;;;13.10;;
23346;SDS011;36852;45.466;11.066;2023-10-13T14:22:05;21.00;;;11.55;;
23346;SDS011;36852;45.466;11.066;2023-10-13T14:24:34;29.77;;;12.30;;
23346;SDS011;36852;45.466;11.066;2023-10-13T14:27:03;21.57;;;11.68;;
23346;SDS011;36852;45.466;11.066;2023-10-13T14:29:41;16.62;;;11.40;;
23346;SDS011;36852;45.466;11.066;2023-10-13T14:32:13;22.87;;;13.15;;
23346;SDS011;36852;45.466;11.066;2023-10-13T14:34:43;21.60;;;13.03;;
23346;SDS011;36852;45.466;11.066;2023-10-13T14:37:13;22.93;;;12.93;;
23346;SDS011;36852;45.466;11.066;2023-10-13T14:39:41;27.00;;;14.68;;
23346;SDS011;36852;45.466;11.066;2023-10-13T14:42:10;26.65;;;15.03;;
23346;SDS011;36852;45.466;11.066;2023-10-13T14:44:37;24.67;;;13.65;;
23346;SDS011;36852;45.466;11.066;2023-10-13T14:47:06;24.82;;;14.58;;
23346;SDS011;36852;45.466;11.066;2023-10-13T14:49:36;28.57;;;14.45;;
23346;SDS011;36852;45.466;11.066;2023-10-13T14:52:04;22.77;;;12.82;;
23346;SDS011;36852;45.466;11.066;2023-10-13T14:54:32;23.98;;;12.80;;
23346;SDS011;36852;45.466;11.066;2023-10-13T14:57:01;23.05;;;13.78;;
23346;SDS011;36852;45.466;11.066;2023-10-13T14:59:30;20.75;;;13.72;;
23346;SDS011;36852;45.466;11.066;2023-10-13T15:02:01;17.95;;;12.53;;
23346;SDS011;36852;45.466;11.066;2023-10-13T15:04:32;29.23;;;14.30;;